Time;durP1;ratioP1;P1;durP2;ratioP2;P2;SDS_P1;SDS_P2;PMS_P1;PMS_P2;Temp;Humidity;BMP_temperature;BMP_pressure;BME280_temperature;BME280_humidity;BME280_pressure;Samples;Min_cycle;Max_cycle;Signal;HPM_P1;HPM_P2
2023/12/07 00:02:18;;;;;;;2.63;1.08;;;;;;;11.07;100.00;100145.97;5027466;28;20092;-74
2023/12/07 00:04:46;;;;;;;2.30;0.75;;;;;;;11.06;100.00;100154.63;5026149;28;20056;-73
2023/12/07 00:07:16;;;;;;;1.05;0.55;;;;;;;11.07;100.00;100160.66;5024213;28;20136;-73
2023/12/07 00:09:44;;;;;;;0.55;0.25;;;;;;;11.07;100.00;100151.16;5026288;28;20049;-74
2023/12/07 00:12:13;;;;;;;0.45;0.20;;;;;;;11.08;100.00;100142.53;5027837;28;20057;-75
2023/12/07 00:14:42;;;;;;;2.83;0.57;;;;;;;11.07;100.00;100139.94;5027242;28;20197;-75
2023/12/07 00:17:10;;;;;;;1.38;0.57;;;;;;;11.04;100.00;100140.75;5027023;28;20045;-74
2023/12/07 00:19:45;;;;;;;1.10;0.88;;;;;;;10.99;100.00;100152.72;5025560;28;20475;-73
2023/12/07 00:22:14;;;;;;;0.65;0.50;;;;;;;10.91;100.00;100149.16;5024602;28;20160;-74
2023/12/07 00:24:43;;;;;;;3.25;0.50;;;;;;;10.85;100.00;100147.31;5027220;28;20050;-73
2023/12/07 00:27:12;;;;;;;0.90;0.45;;;;;;;10.82;100.00;100147.25;5027212;28;20049;-76
2023/12/07 00:29:40;;;;;;;0.75;0.30;;;;;;;10.80;100.00;100142.91;5025648;28;20063;-75
2023/12/07 00:32:11;;;;;;;1.02;0.47;;;;;;;10.80;100.00;100148.06;5024529;28;20064;-74
2023/12/07 00:34:44;;;;;;;0.68;0.40;;;;;;;10.79;100.00;100151.50;5022945;28;20053;-74
2023/12/07 00:37:12;;;;;;;;;;;;;;;10.81;100.00;100157.56;5025868;28;20454;-74
2023/12/07 00:39:43;;;;;;;1.05;0.40;;;;;;;10.82;100.00;100164.50;5024560;28;19948;-74
2023/12/07 00:42:12;;;;;;;0.80;0.50;;;;;;;10.79;100.00;100156.66;5025596;28;20057;-74
2023/12/07 00:44:42;;;;;;;0.88;0.50;;;;;;;10.74;100.00;100163.47;5025603;28;20072;-72
2023/12/07 00:47:11;;;;;;;0.65;0.40;;;;;;;10.73;100.00;100175.56;5028338;28;20124;-73
2023/12/07 00:49:45;;;;;;;1.58;0.32;;;;;;;10.69;100.00;100172.00;5026301;28;20053;-72
2023/12/07 00:52:19;;;;;;;0.73;0.50;;;;;;;10.74;100.00;100176.41;5023954;28;20053;-74
2023/12/07 00:54:48;;;;;;;0.52;0.25;;;;;;;10.75;100.00;100178.19;5026702;28;20239;-74
2023/12/07 00:57:17;;;;;;;0.22;0.22;;;;;;;10.76;100.00;100169.56;5026673;28;20045;-75
2023/12/07 00:59:47;;;;;;;0.80;0.30;;;;;;;10.75;100.00;100167.81;5022816;28;20495;-76
2023/12/07 01:02:16;;;;;;;0.55;0.50;;;;;;;10.75;100.00;100173.00;5026442;28;20770;-76
2023/12/07 01:04:47;;;;;;;0.75;0.32;;;;;;;10.69;100.00;100164.25;5027012;28;20057;-74
2023/12/07 01:07:15;;;;;;;2.45;1.20;;;;;;;10.64;100.00;100172.78;5026780;28;20064;-75
2023/12/07 01:09:46;;;;;;;1.88;1.13;;;;;;;10.58;100.00;100165.78;5023377;28;20054;-75
2023/12/07 01:12:14;;;;;;;4.00;2.05;;;;;;;10.57;100.00;100168.34;5024586;28;20630;-74
2023/12/07 01:14:43;;;;;;;4.60;2.60;;;;;;;10.56;100.00;100174.31;5025793;28;20053;-74
2023/12/07 01:17:12;;;;;;;4.20;2.33;;;;;;;10.57;100.00;100178.69;5024866;28;20049;-72
2023/12/07 01:19:41;;;;;;;5.88;3.38;;;;;;;10.56;100.00;100172.63;5025945;28;20692;-73
2023/12/07 01:22:11;;;;;;;6.18;4.72;;;;;;;10.50;100.00;100177.69;5022940;28;20115;-73
2023/12/07 01:24:43;;;;;;;9.60;6.07;;;;;;;10.47;100.00;100183.66;5022983;28;20049;-73
2023/12/07 01:27:12;;;;;;;4.70;3.70;;;;;;;10.45;100.00;100182.75;5024811;28;20513;-72
2023/12/07 01:29:43;;;;;;;2.80;2.25;;;;;;;10.41;100.00;100178.34;5026032;28;20045;-74
2023/12/07 01:32:13;;;;;;;1.57;1.07;;;;;;;10.34;100.00;100183.38;5028177;28;20104;-73
2023/12/07 01:34:44;;;;;;;1.17;0.80;;;;;;;10.26;100.00;100181.47;5028986;28;20055;-71
2023/12/07 01:37:14;;;;;;;0.70;0.60;;;;;;;10.22;100.00;100191.72;5029691;28;20049;-72
2023/12/07 01:39:44;;;;;;;2.25;0.60;;;;;;;10.19;100.00;100183.88;5028545;28;20045;-72
2023/12/07 01:42:13;;;;;;;0.45;0.40;;;;;;;10.16;100.00;100192.44;5027026;28;20128;-72
2023/12/07 01:44:42;;;;;;;1.00;0.60;;;;;;;10.15;100.00;100200.19;5026977;28;20138;-72
2023/12/07 01:47:10;;;;;;;1.67;0.50;;;;;;;10.14;100.00;100199.28;5026571;28;20139;-73
2023/12/07 01:49:40;;;;;;;0.28;0.28;;;;;;;10.15;100.00;100207.94;5026645;28;20083;-72
2023/12/07 01:52:10;;;;;;;2.72;0.28;;;;;;;10.12;100.00;100205.25;5029380;28;20106;-73
2023/12/07 01:54:41;;;;;;;1.02;0.45;;;;;;;10.09;100.00;100200.03;5030284;28;20071;-73
2023/12/07 01:57:10;;;;;;;0.50;0.45;;;;;;;10.08;100.00;100199.16;5027587;28;20058;-74
2023/12/07 01:59:38;;;;;;;1.27;0.60;;;;;;;10.07;100.00;100206.03;5029609;28;20071;-73
2023/12/07 02:02:07;;;;;;;1.20;0.70;;;;;;;10.03;100.00;100206.81;5028580;28;20054;-73
2023/12/07 02:04:37;;;;;;;1.80;0.90;;;;;;;10.01;100.00;100202.41;5028606;28;20115;-73
2023/12/07 02:07:08;;;;;;;0.50;0.40;;;;;;;9.96;100.00;100204.91;5028845;28;20136;-72
2023/12/07 02:09:39;;;;;;;0.60;0.47;;;;;;;9.95;100.00;100199.72;5028074;28;20522;-72
2023/12/07 02:12:08;;;;;;;2.20;0.98;;;;;;;9.97;100.00;100203.22;5028742;28;20053;-73
2023/12/07 02:14:37;;;;;;;0.73;0.52;;;;;;;9.97;100.00;100200.63;5026871;28;20514;-73
2023/12/07 02:17:16;;;;;;;1.65;0.68;;;;;;;9.96;100.00;100201.44;5027738;28;20100;-72
2023/12/07 02:20:02;;;;;;;0.82;0.57;;;;;;;9.93;100.00;100204.84;5027082;28;20128;-72
2023/12/07 02:22:36;;;;;;;2.33;0.70;;;;;;;9.98;100.00;100203.22;5027359;28;20041;-72
2023/12/07 02:25:11;;;;;;;0.82;0.68;;;;;;;9.97;100.00;100209.25;5027034;28;20056;-73
2023/12/07 02:27:43;;;;;;;1.02;0.60;;;;;;;9.96;100.00;100204.03;5027375;28;20073;-73
2023/12/07 02:30:13;;;;;;;1.25;0.70;;;;;;;9.96;100.00;100206.63;5023852;28;20056;-73
2023/12/07 02:32:44;;;;;;;1.35;0.68;;;;;;;9.98;100.00;100199.78;5025624;28;20042;-72
2023/12/07 02:35:14;;;;;;;1.27;0.63;;;;;;;10.01;100.00;100194.66;5026572;28;20055;-72
2023/12/07 02:37:54;;;;;;;1.35;0.85;;;;;;;10.01;100.00;100187.81;5026508;28;20049;-73
2023/12/07 02:40:25;;;;;;;1.27;0.55;;;;;;;10.04;100.00;100190.44;5025568;28;20049;-73
2023/12/07 02:42:56;;;;;;;1.25;0.52;;;;;;;10.04;100.00;100189.59;5024103;28;20403;-73
2023/12/07 02:45:27;;;;;;;0.60;0.52;;;;;;;10.00;100.00;100187.78;5029102;28;20088;-73
2023/12/07 02:47:56;;;;;;;6.28;0.88;;;;;;;9.98;100.00;100192.88;5029021;28;20109;-73
2023/12/07 02:50:25;;;;;;;2.03;0.85;;;;;;;9.99;100.00;100199.81;5026702;28;20049;-73
2023/12/07 02:52:55;;;;;;;0.88;0.52;;;;;;;10.00;100.00;100195.53;5026609;28;20107;-73
2023/12/07 02:55:24;;;;;;;1.10;0.63;;;;;;;10.03;100.00;100205.91;5025109;28;20053;-73
2023/12/07 02:58:06;;;;;;;1.75;0.60;;;;;;;10.02;100.00;100204.19;5027205;28;20056;-74
2023/12/07 03:00:35;;;;;;;2.45;0.63;;;;;;;10.05;100.00;100209.41;5027700;28;20046;-72
2023/12/07 03:03:04;;;;;;;0.98;0.68;;;;;;;10.06;100.00;100206.00;5025639;28;20063;-73
2023/12/07 03:05:36;;;;;;;2.47;1.20;;;;;;;10.07;100.00;100210.31;5027142;28;20055;-73
2023/12/07 03:08:05;;;;;;;1.38;0.75;;;;;;;10.07;100.00;100212.91;5024069;28;20042;-73
2023/12/07 03:10:37;;;;;;;1.73;0.90;;;;;;;10.04;100.00;100210.28;5026318;28;20199;-74
2023/12/07 03:13:21;;;;;;;2.42;1.05;;;;;;;10.08;100.00;100214.69;5024481;28;20072;-73
2023/12/07 03:15:50;;;;;;;1.63;1.17;;;;;;;10.08;100.00;100214.69;5025126;28;20081;-73
2023/12/07 03:18:19;;;;;;;1.52;0.80;;;;;;;10.06;100.00;100218.94;5027321;28;20063;-73
2023/12/07 03:20:50;;;;;;;2.30;0.95;;;;;;;10.04;100.00;100218.03;5027324;28;20071;-74
2023/12/07 03:23:18;;;;;;;1.55;0.80;;;;;;;9.96;100.00;100217.81;5025494;28;20053;-73
2023/12/07 03:25:47;;;;;;;1.50;0.75;;;;;;;9.95;100.00;100228.16;5024844;28;20107;-73
2023/12/07 03:28:17;;;;;;;1.92;0.90;;;;;;;9.91;100.00;100227.19;5026799;28;20072;-73
2023/12/07 03:30:46;;;;;;;1.45;0.70;;;;;;;9.90;100.00;100230.63;5025380;28;20059;-72
2023/12/07 03:33:15;;;;;;;1.25;0.90;;;;;;;9.85;100.00;100227.06;5022435;28;20083;-73
2023/12/07 03:35:44;;;;;;;2.20;0.95;;;;;;;9.81;100.00;100235.56;5026503;28;20060;-74
2023/12/07 03:38:12;;;;;;;2.22;1.38;;;;;;;9.79;100.00;100230.34;5024958;28;20100;-73
2023/12/07 03:40:41;;;;;;;3.03;1.95;;;;;;;9.79;100.00;100235.53;5024292;28;20059;-74
2023/12/07 03:43:10;;;;;;;4.13;1.95;;;;;;;9.74;100.00;100234.53;5026210;28;20059;-74
2023/12/07 03:45:40;;;;;;;5.03;2.00;;;;;;;9.77;100.00;100239.78;5028024;28;20049;-74
2023/12/07 03:48:09;;;;;;;2.83;1.60;;;;;;;9.72;100.00;100236.22;5027334;28;20069;-73
2023/12/07 03:50:37;;;;;;;3.65;2.03;;;;;;;9.63;100.00;100236.00;5027661;28;20135;-74
2023/12/07 03:53:06;;;;;;;3.13;1.80;;;;;;;9.62;100.00;100237.72;5022063;28;20053;-73
2023/12/07 03:55:35;;;;;;;3.63;2.33;;;;;;;9.64;100.00;100242.88;5025526;28;20065;-73
2023/12/07 03:58:03;;;;;;;3.75;1.80;;;;;;;9.58;100.00;100229.84;5026726;28;20065;-73
2023/12/07 04:00:35;;;;;;;3.33;2.03;;;;;;;9.59;100.00;100239.31;5024982;28;20073;-74
2023/12/07 04:03:06;;;;;;;6.15;1.67;;;;;;;9.56;100.00;100234.09;5025321;28;20073;-73
2023/12/07 04:05:35;;;;;;;4.72;2.25;;;;;;;9.53;100.00;100239.16;5023942;28;20052;-74
2023/12/07 04:08:05;;;;;;;4.85;1.70;;;;;;;9.47;100.00;100236.44;5025180;28;20826;-73
2023/12/07 04:10:34;;;;;;;3.15;1.77;;;;;;;9.46;100.00;100238.16;5024703;28;20049;-72
2023/12/07 04:13:02;;;;;;;1.63;1.20;;;;;;;9.43;100.00;100238.94;5025295;28;20049;-73
2023/12/07 04:15:40;;;;;;;2.38;1.38;;;;;;;9.41;100.00;100238.03;5025955;28;20037;-73
2023/12/07 04:18:13;;;;;;;6.18;1.30;;;;;;;9.40;100.00;100232.81;5022352;28;20053;-73
2023/12/07 04:20:42;;;;;;;3.22;2.03;;;;;;;9.39;100.00;100237.13;5024386;28;20510;-73
2023/12/07 04:23:11;;;;;;;3.35;1.50;;;;;;;9.39;100.00;100242.28;5024681;28;20057;-74
2023/12/07 04:25:39;;;;;;;2.53;1.35;;;;;;;9.39;100.00;100243.97;5025472;28;20045;-73
2023/12/07 04:28:11;;;;;;;1.42;0.80;;;;;;;9.38;100.00;100240.53;5025154;28;20064;-73
2023/12/07 04:30:46;;;;;;;1.88;0.70;;;;;;;9.42;100.00;100244.94;5023486;28;20050;-73
2023/12/07 04:33:17;;;;;;;4.90;0.93;;;;;;;9.45;100.00;100241.56;5025734;28;20061;-74
2023/12/07 04:35:45;;;;;;;1.42;0.80;;;;;;;9.41;100.00;100239.72;5025866;28;20053;-74
2023/12/07 04:38:17;;;;;;;1.50;0.95;;;;;;;9.34;100.00;100243.84;5026333;28;20072;-74
2023/12/07 04:40:46;;;;;;;1.75;1.10;;;;;;;9.37;100.00;100237.91;5025584;28;20065;-74
2023/12/07 04:43:16;;;;;;;2.45;1.40;;;;;;;9.37;100.00;100237.91;5026211;28;20520;-75
2023/12/07 04:45:44;;;;;;;3.33;1.25;;;;;;;9.35;100.00;100240.44;5019877;28;20144;-74
2023/12/07 04:48:13;;;;;;;1.92;1.30;;;;;;;9.32;100.00;100234.31;5025139;28;20623;-74
2023/12/07 04:50:43;;;;;;;4.28;1.40;;;;;;;9.32;100.00;100235.22;5026014;28;20064;-73
2023/12/07 04:53:12;;;;;;;2.92;1.63;;;;;;;9.32;100.00;100237.81;5026107;28;20050;-73
2023/12/07 04:55:42;;;;;;;2.15;1.55;;;;;;;9.32;100.00;100237.81;5026050;28;20065;-74
2023/12/07 04:58:11;;;;;;;2.60;1.33;;;;;;;9.31;100.00;100240.34;5024710;28;20049;-73
2023/12/07 05:00:40;;;;;;;3.03;1.35;;;;;;;9.28;100.00;100241.13;5026045;28;20053;-72
2023/12/07 05:03:08;;;;;;;1.25;1.10;;;;;;;9.30;100.00;100241.16;5026778;28;20037;-72
2023/12/07 05:05:37;;;;;;;1.88;1.25;;;;;;;9.31;100.00;100236.03;5027031;28;20061;-73
2023/12/07 05:08:08;;;;;;;3.53;1.20;;;;;;;9.34;100.00;100241.28;5030844;28;20136;-73
2023/12/07 05:10:37;;;;;;;3.63;1.48;;;;;;;9.37;100.00;100238.78;5028860;28;20931;-74
2023/12/07 05:13:08;;;;;;;3.03;1.42;;;;;;;9.41;100.00;100240.63;5032612;28;20534;-73
2023/12/07 05:15:37;;;;;;;2.47;1.10;;;;;;;9.46;100.00;100243.31;5030126;28;20057;-72
2023/12/07 05:18:06;;;;;;;2.53;1.60;;;;;;;9.46;100.00;100243.31;5029416;28;20053;-74
2023/12/07 05:20:36;;;;;;;2.13;1.20;;;;;;;9.49;100.00;100242.53;5028126;28;20053;-72
2023/12/07 05:23:04;;;;;;;2.80;1.10;;;;;;;9.48;100.00;100246.78;5030680;28;20046;-73
2023/12/07 05:25:35;;;;;;;2.00;1.40;;;;;;;9.49;100.00;100250.28;5029839;28;20045;-74
2023/12/07 05:28:04;;;;;;;2.25;1.40;;;;;;;9.47;100.00;100249.34;5031000;28;20045;-73
2023/12/07 05:30:33;;;;;;;3.40;1.48;;;;;;;9.42;100.00;100242.34;5029436;28;20067;-73
2023/12/07 05:33:04;;;;;;;2.55;1.42;;;;;;;9.48;100.00;100246.78;5030117;28;20053;-74
2023/12/07 05:35:36;;;;;;;2.47;1.65;;;;;;;9.53;100.00;100252.06;5027407;28;20269;-73
2023/12/07 05:38:04;;;;;;;2.07;1.33;;;;;;;9.49;100.00;100252.84;5028319;28;20049;-73
2023/12/07 05:40:35;;;;;;;1.85;1.20;;;;;;;9.52;100.00;100258.09;5026762;28;20052;-75
2023/12/07 05:43:09;;;;;;;3.13;1.38;;;;;;;9.49;100.00;100258.88;5028113;28;20068;-75
2023/12/07 05:45:38;;;;;;;3.33;1.85;;;;;;;9.45;100.00;100262.22;5025452;28;20046;-73
2023/12/07 05:48:07;;;;;;;3.17;1.52;;;;;;;9.48;100.00;100254.53;5026847;28;20054;-73
2023/12/07 05:50:39;;;;;;;3.63;1.52;;;;;;;9.52;100.00;100261.53;5027129;28;20069;-73
2023/12/07 05:53:08;;;;;;;1.50;0.90;;;;;;;9.53;100.00;100259.81;5024962;28;20073;-73
2023/12/07 05:55:41;;;;;;;1.27;0.93;;;;;;;9.55;100.00;100260.72;5028299;28;20132;-73
2023/12/07 05:58:09;;;;;;;;;;;;;;;9.57;100.00;100251.31;5025830;28;20071;-72
2023/12/07 06:00:39;;;;;;;2.97;1.45;;;;;;;9.58;100.00;100253.09;5024736;28;19921;-72
2023/12/07 06:03:09;;;;;;;2.47;1.60;;;;;;;9.53;100.00;100240.06;5028043;28;20045;-72
2023/12/07 06:05:40;;;;;;;1.45;1.15;;;;;;;9.58;100.00;100251.38;5028161;28;20048;-73
2023/12/07 06:08:09;;;;;;;1.92;1.30;;;;;;;9.61;100.00;100259.19;5028613;28;20057;-73
2023/12/07 06:10:40;;;;;;;1.77;1.20;;;;;;;9.65;100.00;100267.91;5025498;28;20402;-72
2023/12/07 06:13:08;;;;;;;1.77;1.25;;;;;;;9.65;100.00;100262.72;5028934;28;20574;-73
2023/12/07 06:15:37;;;;;;;2.50;1.02;;;;;;;9.57;100.00;100271.97;5022904;28;20057;-73
2023/12/07 06:18:06;;;;;;;1.48;1.00;;;;;;;9.54;100.00;100277.94;5025033;28;20049;-72
2023/12/07 06:20:35;;;;;;;1.42;0.80;;;;;;;9.55;100.00;100273.66;5027100;28;20743;-73
2023/12/07 06:23:04;;;;;;;1.25;0.80;;;;;;;9.52;100.00;100278.75;5027390;28;20064;-71
2023/12/07 06:25:33;;;;;;;1.67;1.08;;;;;;;9.48;100.00;100292.41;5027288;28;20591;-71
2023/12/07 06:28:06;;;;;;;1.15;0.82;;;;;;;9.47;100.00;100295.84;5025710;28;20061;-73
2023/12/07 06:30:35;;;;;;;2.25;0.50;;;;;;;9.40;100.00;100292.22;5024329;28;20049;-73
2023/12/07 06:33:04;;;;;;;0.95;0.55;;;;;;;9.46;100.00;100299.25;5026668;28;20432;-73
2023/12/07 06:35:35;;;;;;;2.83;0.70;;;;;;;9.46;100.00;100300.13;5026301;28;20058;-72
2023/12/07 06:38:04;;;;;;;2.00;0.68;;;;;;;9.46;100.00;100299.25;5026625;28;20175;-74
2023/12/07 06:40:39;;;;;;;0.88;0.55;;;;;;;9.43;100.00;100300.91;5026799;28;20165;-73
2023/12/07 06:43:09;;;;;;;0.30;0.30;;;;;;;9.43;100.00;100303.47;5027644;28;20061;-73
2023/12/07 06:45:38;;;;;;;1.65;0.55;;;;;;;9.43;100.00;100306.06;5025651;28;20077;-73
2023/12/07 06:48:11;;;;;;;0.32;0.30;;;;;;;9.42;100.00;100309.50;5026099;28;20130;-73
2023/12/07 06:50:40;;;;;;;0.30;0.30;;;;;;;9.40;100.00;100316.31;5026256;28;20073;-73
2023/12/07 06:53:09;;;;;;;0.45;0.32;;;;;;;9.42;100.00;100314.66;5027273;28;20057;-74
2023/12/07 06:55:38;;;;;;;0.70;0.30;;;;;;;9.44;100.00;100313.00;5023461;28;20081;-74
2023/12/07 06:58:08;;;;;;;0.80;0.30;;;;;;;9.42;100.00;100314.66;5025702;28;20130;-73
2023/12/07 07:00:37;;;;;;;0.28;0.22;;;;;;;9.42;100.00;100308.63;5024494;28;20128;-73
2023/12/07 07:03:06;;;;;;;0.20;0.20;;;;;;;9.39;100.00;100311.09;5024176;28;20561;-72
2023/12/07 07:05:45;;;;;;;0.25;0.25;;;;;;;9.40;100.00;100318.03;5027105;28;20979;-73
2023/12/07 07:08:16;;;;;;;2.95;0.60;;;;;;;9.40;100.00;100311.16;5028265;28;20103;-72
2023/12/07 07:10:46;;;;;;;1.63;0.20;;;;;;;9.40;100.00;100306.00;5024760;28;20048;-73
2023/12/07 07:13:16;;;;;;;0.57;0.30;;;;;;;9.38;100.00;100317.97;5020632;28;20054;-73
2023/12/07 07:15:53;;;;;;;2.40;0.25;;;;;;;9.30;100.00;100310.84;5026148;28;20563;-73
2023/12/07 07:18:23;;;;;;;0.38;0.30;;;;;;;9.27;100.00;100309.06;5024121;28;20046;-73
2023/12/07 07:20:52;;;;;;;4.75;0.38;;;;;;;9.23;100.00;100318.47;5026246;28;20045;-73
2023/12/07 07:23:21;;;;;;;0.30;0.20;;;;;;;9.22;100.00;100315.81;5022110;28;20052;-72
2023/12/07 07:25:49;;;;;;;1.05;0.40;;;;;;;9.17;100.00;100320.00;5022667;28;20116;-72
2023/12/07 07:28:20;;;;;;;0.45;0.30;;;;;;;9.12;100.00;100325.03;5028132;28;20037;-73
2023/12/07 07:30:49;;;;;;;1.42;0.50;;;;;;;9.13;100.00;100331.06;5026041;28;20056;-73
2023/12/07 07:33:17;;;;;;;0.65;0.40;;;;;;;9.11;100.00;100335.28;5024234;28;20058;-73
2023/12/07 07:35:46;;;;;;;1.00;0.50;;;;;;;9.10;100.00;100328.41;5027675;28;20163;-73
2023/12/07 07:38:15;;;;;;;0.30;0.30;;;;;;;9.05;100.00;100327.34;5028523;28;20056;-72
2023/12/07 07:40:45;;;;;;;0.43;0.30;;;;;;;8.99;100.00;100333.22;5027108;28;20076;-73
2023/12/07 07:43:13;;;;;;;0.35;0.30;;;;;;;9.00;100.00;100341.03;5026617;28;20127;-72
2023/12/07 07:45:45;;;;;;;0.88;0.30;;;;;;;8.99;100.00;100334.09;5021603;28;20069;-73
2023/12/07 07:48:14;;;;;;;0.35;0.30;;;;;;;8.97;100.00;100330.59;5027128;28;20046;-73
2023/12/07 07:50:43;;;;;;;0.55;0.30;;;;;;;8.96;100.00;100338.31;5026581;28;20052;-74
2023/12/07 07:53:11;;;;;;;3.58;0.52;;;;;;;8.96;100.00;100343.47;5023035;28;20045;-73
2023/12/07 07:55:40;;;;;;;0.40;0.38;;;;;;;8.94;100.00;100346.00;5023781;28;20064;-73
2023/12/07 07:58:09;;;;;;;0.45;0.30;;;;;;;8.95;100.00;100352.91;5023031;28;20498;-73
2023/12/07 08:00:38;;;;;;;0.73;0.28;;;;;;;8.92;100.00;100363.13;5023540;28;20061;-72
2023/12/07 08:03:08;;;;;;;0.65;0.38;;;;;;;8.93;100.00;100369.16;5024156;28;20041;-72
2023/12/07 08:05:37;;;;;;;1.95;0.43;;;;;;;8.89;100.00;100368.22;5025612;28;20119;-71
2023/12/07 08:08:06;;;;;;;1.52;0.25;;;;;;;8.93;100.00;100379.50;5024603;28;20049;-72
2023/12/07 08:10:35;;;;;;;1.17;0.50;;;;;;;8.94;100.00;100370.94;5025958;28;20045;-72
2023/12/07 08:13:04;;;;;;;2.15;0.70;;;;;;;8.94;100.00;100370.94;5021114;28;20080;-72
2023/12/07 08:15:35;;;;;;;1.60;0.65;;;;;;;8.95;100.00;100372.69;5025096;28;20388;-72
2023/12/07 08:18:05;;;;;;;0.93;0.60;;;;;;;8.90;100.00;100380.28;5024635;28;20055;-72
2023/12/07 08:20:35;;;;;;;0.50;0.30;;;;;;;8.94;100.00;100381.25;5023932;28;20057;-72
2023/12/07 08:23:04;;;;;;;2.30;0.60;;;;;;;8.93;100.00;100380.38;5025993;28;20059;-72
2023/12/07 08:25:33;;;;;;;0.77;0.60;;;;;;;8.92;100.00;100388.94;5024478;28;20618;-71
2023/12/07 08:28:02;;;;;;;0.20;0.20;;;;;;;8.91;100.00;100396.63;5027087;28;20057;-72
2023/12/07 08:30:32;;;;;;;0.32;0.22;;;;;;;8.89;100.00;100393.16;5023445;28;20048;-72
2023/12/07 08:33:00;;;;;;;1.95;0.40;;;;;;;8.99;100.00;100415.81;5026502;28;20048;-72
2023/12/07 08:35:32;;;;;;;0.40;0.30;;;;;;;9.01;100.00;100409.88;5024666;28;20050;-73
2023/12/07 08:38:03;;;;;;;0.77;0.63;;;;;;;9.01;100.00;100417.59;5025302;28;20145;-72
2023/12/07 08:40:34;;;;;;;0.20;0.20;;;;;;;8.84;100.00;100405.88;5028309;28;20140;-71
2023/12/07 08:43:03;;;;;;;1.75;0.20;;;;;;;8.81;100.00;100385.16;5025969;28;20042;-72
2023/12/07 08:45:38;;;;;;;0.30;0.22;;;;;;;8.76;100.00;100345.47;5029000;28;20049;-73
2023/12/07 08:48:08;;;;;;;0.30;0.20;;;;;;;8.79;100.00;100330.06;5029846;28;20136;-73
2023/12/07 08:50:36;;;;;;;0.25;0.20;;;;;;;8.80;100.00;100339.56;5029148;28;20048;-72
2023/12/07 08:53:07;;;;;;;0.22;0.20;;;;;;;8.72;100.00;100348.75;5026558;28;20049;-71
2023/12/07 08:55:38;;;;;;;2.72;0.20;;;;;;;8.73;100.00;100366.00;5028293;28;20053;-72
2023/12/07 08:58:06;;;;;;;0.10;0.10;;;;;;;8.67;100.00;100363.22;5026251;28;20064;-72
2023/12/07 09:00:35;;;;;;;1.20;0.38;;;;;;;8.70;100.00;100376.22;5025992;28;20057;-73
2023/12/07 09:03:04;;;;;;;0.38;0.20;;;;;;;8.74;100.00;100376.34;5023951;28;20438;-72
2023/12/07 09:05:36;;;;;;;0.52;0.20;;;;;;;8.76;100.00;100373.84;5028151;28;20054;-72
2023/12/07 09:08:07;;;;;;;1.53;0.30;;;;;;;8.77;100.00;100383.31;5027701;28;20050;-71
2023/12/07 09:10:35;;;;;;;2.70;0.45;;;;;;;8.77;100.00;100381.63;5026748;28;20290;-71
2023/12/07 09:13:04;;;;;;;0.40;0.20;;;;;;;8.78;100.00;100379.91;5027851;28;20095;-72
2023/12/07 09:15:37;;;;;;;0.15;0.15;;;;;;;8.74;100.00;100378.06;5026688;28;20152;-73
2023/12/07 09:18:05;;;;;;;0.20;0.10;;;;;;;8.76;100.00;100373.84;5029555;28;20727;-72
2023/12/07 09:20:35;;;;;;;0.35;0.28;;;;;;;8.76;100.00;100381.56;5025644;28;20144;-72
2023/12/07 09:23:03;;;;;;;0.32;0.20;;;;;;;8.83;100.00;100392.97;5027184;28;20657;-72
2023/12/07 09:25:38;;;;;;;2.17;0.57;;;;;;;8.84;100.00;100400.72;5028180;28;20554;-72
2023/12/07 09:28:08;;;;;;;0.60;0.30;;;;;;;8.88;100.00;100400.00;5026289;28;20054;-71
2023/12/07 09:30:36;;;;;;;0.52;0.40;;;;;;;8.86;100.00;100385.28;5027061;28;20143;-72
2023/12/07 09:33:07;;;;;;;0.55;0.50;;;;;;;8.84;100.00;100380.09;5030673;28;20049;-72
2023/12/07 09:35:37;;;;;;;0.80;0.55;;;;;;;8.79;100.00;100381.66;5030455;28;20581;-72
2023/12/07 09:38:06;;;;;;;0.75;0.40;;;;;;;8.76;100.00;100386.72;5025829;28;20046;-71
2023/12/07 09:40:37;;;;;;;0.60;0.32;;;;;;;8.80;100.00;100398.91;5028283;28;20041;-72
2023/12/07 09:43:06;;;;;;;0.65;0.40;;;;;;;8.81;100.00;100405.78;5026343;28;20053;-71
2023/12/07 09:45:34;;;;;;;0.43;0.30;;;;;;;8.79;100.00;100404.88;5027857;28;20056;-72
2023/12/07 09:48:04;;;;;;;1.83;0.57;;;;;;;8.79;100.00;100408.31;5025574;28;20056;-72
2023/12/07 09:50:37;;;;;;;1.90;0.30;;;;;;;8.77;100.00;100410.00;5026177;28;20067;-72
2023/12/07 09:53:06;;;;;;;1.02;0.20;;;;;;;8.73;100.00;100407.28;5026196;28;20049;-71
2023/12/07 09:55:44;;;;;;;0.35;0.30;;;;;;;8.75;100.00;100396.19;5024809;28;20049;-72
2023/12/07 09:58:14;;;;;;;0.43;0.20;;;;;;;8.77;100.00;100406.53;5028530;28;20123;-71
2023/12/07 10:00:43;;;;;;;0.20;0.20;;;;;;;8.76;100.00;100403.06;5026902;28;20820;-72
2023/12/07 10:03:23;;;;;;;1.35;0.30;;;;;;;8.78;100.00;100397.97;5028600;28;20041;-72
2023/12/07 10:05:59;;;;;;;2.42;0.40;;;;;;;8.78;100.00;100405.72;5023704;28;20049;-71
2023/12/07 10:08:31;;;;;;;1.45;0.50;;;;;;;8.77;100.00;100424.59;5024372;28;20052;-72
2023/12/07 10:11:09;;;;;;;0.68;0.40;;;;;;;8.78;100.00;100416.03;5026719;28;20054;-71
2023/12/07 10:13:41;;;;;;;0.43;0.30;;;;;;;8.80;100.00;100420.41;5025327;28;20725;-70
2023/12/07 10:16:12;;;;;;;0.90;0.30;;;;;;;8.82;100.00;100435.94;5027038;28;20057;-72
2023/12/07 10:18:41;;;;;;;0.43;0.30;;;;;;;8.81;100.00;100447.94;5026678;28;20511;-71
2023/12/07 10:21:10;;;;;;;0.77;0.50;;;;;;;8.79;100.00;100443.56;5028212;28;20056;-71
2023/12/07 10:23:40;;;;;;;1.10;0.52;;;;;;;8.81;100.00;100454.81;5025744;28;20052;-72
2023/12/07 10:26:10;;;;;;;1.02;0.40;;;;;;;8.81;100.00;100447.94;5022773;28;20041;-71
2023/12/07 10:28:39;;;;;;;1.80;0.38;;;;;;;8.84;100.00;100446.28;5029286;28;20048;-72
2023/12/07 10:31:11;;;;;;;0.55;0.45;;;;;;;8.87;100.00;100457.59;5029782;28;20044;-72
2023/12/07 10:33:40;;;;;;;0.73;0.30;;;;;;;8.87;100.00;100452.44;5028864;28;20053;-73
2023/12/07 10:36:10;;;;;;;1.00;0.65;;;;;;;8.88;100.00;100454.19;5027073;28;20150;-72
2023/12/07 10:38:41;;;;;;;0.30;0.22;;;;;;;8.90;100.00;100462.84;5025933;28;20056;-73
2023/12/07 10:41:14;;;;;;;0.75;0.50;;;;;;;8.92;100.00;100462.91;5021278;28;20456;-72
2023/12/07 10:43:46;;;;;;;0.45;0.28;;;;;;;8.93;100.00;100460.38;5027839;28;20521;-72
2023/12/07 10:46:17;;;;;;;0.55;0.20;;;;;;;8.92;100.00;100465.47;5024368;28;20136;-74
2023/12/07 10:48:48;;;;;;;0.52;0.30;;;;;;;8.90;100.00;100467.13;5028615;28;20618;-73
2023/12/07 10:51:25;;;;;;;0.68;0.40;;;;;;;8.86;100.00;100455.81;5025520;28;20057;-73
2023/12/07 10:53:55;;;;;;;1.10;0.52;;;;;;;8.90;100.00;100457.69;5025938;28;20056;-73
2023/12/07 10:56:31;;;;;;;1.10;0.35;;;;;;;8.94;100.00;100469.84;5026583;28;20080;-73
2023/12/07 10:59:00;;;;;;;0.22;0.20;;;;;;;8.96;100.00;100469.91;5030359;28;20045;-73
2023/12/07 11:01:33;;;;;;;0.82;0.25;;;;;;;8.96;100.00;100472.50;5026367;28;20124;-73
2023/12/07 11:04:07;;;;;;;10.25;0.88;;;;;;;8.96;100.00;100468.22;5028014;28;20049;-73
2023/12/07 11:06:36;;;;;;;2.53;0.30;;;;;;;8.93;100.00;100475.88;5027271;28;20061;-72
2023/12/07 11:09:10;;;;;;;0.63;0.30;;;;;;;8.96;100.00;100486.28;5027181;28;20041;-73
2023/12/07 11:11:46;;;;;;;0.98;0.30;;;;;;;8.94;100.00;100482.75;5031550;28;20724;-73
2023/12/07 11:14:16;;;;;;;3.35;0.40;;;;;;;8.92;100.00;100476.66;5029004;28;20060;-73
2023/12/07 11:16:47;;;;;;;0.47;0.13;;;;;;;8.96;100.00;100480.25;5027446;28;20051;-74
2023/12/07 11:19:46;;;;;;;1.25;0.20;;;;;;;8.96;100.00;100482.81;5026945;28;20054;-73
2023/12/07 11:22:15;;;;;;;0.90;0.60;;;;;;;8.95;100.00;100475.88;5029412;28;20486;-72
2023/12/07 11:25:02;;;;;;;0.52;0.20;;;;;;;8.99;100.00;100483.78;5026594;28;20087;-72
2023/12/07 11:27:35;;;;;;;0.52;0.25;;;;;;;9.01;100.00;100476.97;5029641;28;20042;-72
2023/12/07 11:30:05;;;;;;;1.45;0.57;;;;;;;9.04;100.00;100485.63;5027327;28;20051;-72
2023/12/07 11:32:34;;;;;;;0.47;0.28;;;;;;;9.00;100.00;100482.97;5027211;28;20052;-73
2023/12/07 11:35:09;;;;;;;2.75;0.25;;;;;;;8.96;100.00;100475.09;5024457;28;20045;-72
2023/12/07 11:38:03;;;;;;;0.32;0.10;;;;;;;8.98;100.00;100476.00;5025221;28;20061;-74
2023/12/07 11:40:37;;;;;;;0.98;0.20;;;;;;;8.92;100.00;100475.81;5025567;28;20068;-74